Time;durP1;ratioP1;P1;durP2;ratioP2;P2;SDS_P1;SDS_P2;PMS_P1;PMS_P2;Temp;Humidity;BMP_temperature;BMP_pressure;BME280_temperature;BME280_humidity;BME280_pressure;Samples;Min_cycle;Max_cycle;Signal;HPM_P1;HPM_P2
2022/11/24 00:01:29;;;;;;;;;;;8.70;65.90;;;3.95;100.00;95036.84;4991989;28;20295;-50
2022/11/24 00:04:05;;;;;;;;;;;8.60;66.00;;;3.97;100.00;95033.97;4958336;28;19921;-56
2022/11/24 00:06:34;;;;;;;;;;;8.60;66.20;;;4.00;100.00;95039.56;4989777;28;20288;-49
2022/11/24 00:09:02;;;;;;;;;;;8.60;66.60;;;4.07;100.00;95034.94;4974803;28;20284;-51
2022/11/24 00:11:32;;;;;;;;;;;8.60;66.70;;;4.13;100.00;95031.34;4957410;28;19917;-49
2022/11/24 00:14:00;;;;;;;;;;;8.70;66.90;;;4.20;100.00;95039.13;4990573;28;19920;-49
2022/11/24 00:16:35;;;;;;;;;;;8.70;66.90;;;4.25;100.00;95044.47;4989781;28;19916;-51
2022/11/24 00:19:06;;;;;;;;;;;8.80;67.00;;;4.33;100.00;95046.75;4965945;28;19909;-50
2022/11/24 00:21:32;;;;;;;;;;;8.90;67.20;;;4.42;100.00;95041.88;4991609;28;19940;-49
2022/11/24 00:23:59;;;;;;;;;;;8.90;67.20;;;4.55;100.00;95046.03;4970003;28;19949;-49
2022/11/24 00:26:31;;;;;;;;;;;9.00;67.40;;;4.62;100.00;95051.94;4968543;28;19914;-52
2022/11/24 00:29:04;;;;;;;;;;;9.10;67.50;;;4.71;100.00;95060.28;4973320;28;19913;-54
2022/11/24 00:31:36;;;;;;;;;;;9.10;68.30;;;4.78;100.00;95058.25;4974547;28;19909;-50
2022/11/24 00:34:06;;;;;;;;;;;9.20;67.70;;;4.87;100.00;95062.91;4991567;28;20016;-50
2022/11/24 00:36:35;;;;;;;;;;;9.20;67.80;;;4.97;100.00;95064.09;4989574;28;19917;-53
2022/11/24 00:39:05;;;;;;;;;;;9.30;68.10;;;5.06;100.00;95067.91;4974269;28;19909;-49
2022/11/24 00:41:32;;;;;;;;;;;9.40;68.00;;;5.13;100.00;95071.19;4972989;28;19909;-49
2022/11/24 00:43:59;;;;;;;;;;;9.40;68.10;;;5.19;100.00;95075.50;4972146;28;19916;-50
2022/11/24 00:46:26;;;;;;;;;;;9.50;68.20;;;5.26;100.00;95072.69;4987771;28;19913;-52
2022/11/24 00:48:53;;;;;;;;;;;9.60;68.20;;;5.32;100.00;95077.78;4969612;28;19925;-50
2022/11/24 00:51:22;;;;;;;;;;;9.60;68.40;;;5.37;100.00;95077.06;4973608;28;19910;-49
2022/11/24 00:53:48;;;;;;;;;;;9.70;68.30;;;5.39;100.00;95074.16;4979693;28;19914;-51
2022/11/24 00:56:17;;;;;;;;;;;9.80;68.20;;;5.41;100.00;95086.09;4990749;28;19914;-50
2022/11/24 00:58:44;;;;;;;;;;;9.80;68.10;;;5.44;100.00;95092.75;4955295;28;19914;-49
2022/11/24 01:01:27;;;;;;;;;;;9.80;68.10;;;5.45;100.00;95100.44;4973792;28;20289;-51
2022/11/24 01:03:54;;;;;;;;;;;9.90;68.10;;;5.48;100.00;95097.28;4957500;28;20379;-50
2022/11/24 01:06:29;;;;;;;;;;;9.90;68.00;;;5.47;100.00;95100.19;4968497;28;19909;-50
2022/11/24 01:08:56;;;;;;;;;;;9.90;68.00;;;5.48;100.00;95112.34;4955767;28;19920;-51
2022/11/24 01:12:00;;;;;;;;;;;9.90;68.00;;;5.53;100.00;95115.06;4956326;28;20145;-50
2022/11/24 01:14:15;;;;;;;;;;;10.00;68.10;;;5.56;100.00;95114.56;4990112;28;19920;-49
2022/11/24 01:16:50;;;;;;;;;;;10.00;68.00;;;5.57;100.00;95118.81;4988060;28;19913;-50
2022/11/24 01:19:19;;;;;;;;;;;10.00;68.00;;;5.62;100.00;95120.72;4990863;28;20419;-50
2022/11/24 01:21:45;;;;;;;;;;;10.10;68.00;;;5.62;100.00;95124.16;4989611;28;19924;-50
2022/11/24 01:24:14;;;;;;;;;;;10.10;68.00;;;5.63;100.00;95123.09;4958379;28;20008;-49
2022/11/24 01:26:40;;;;;;;;;;;10.10;67.90;;;5.65;100.00;95131.59;4987143;28;19913;-49
2022/11/24 01:29:06;;;;;;;;;;;10.20;67.90;;;5.63;100.00;95133.69;4989706;28;20024;-49
2022/11/24 01:31:32;;;;;;;;;;;10.20;67.80;;;5.65;100.00;95134.25;4990673;28;19910;-49
2022/11/24 01:34:04;;;;;;;;;;;10.20;67.80;;;5.65;100.00;95149.31;4989675;28;19921;-53
2022/11/24 01:36:29;;;;;;;;;;;10.20;67.70;;;5.63;100.00;95146.88;4972311;28;19910;-49
2022/11/24 01:38:55;;;;;;;;;;;10.20;67.70;;;5.67;100.00;95148.03;4990867;28;19913;-50
2022/11/24 01:41:24;;;;;;;;;;;10.20;67.80;;;5.69;100.00;95151.22;4989767;28;20351;-49
2022/11/24 01:43:52;;;;;;;;;;;10.20;67.80;;;5.70;100.00;95159.94;4990971;28;19917;-50
2022/11/24 01:46:48;;;;;;;;;;;10.20;67.90;;;5.71;100.00;95158.91;4971703;28;19940;-53
2022/11/24 01:49:43;;;;;;;;;;;10.30;67.90;;;5.72;100.00;95169.22;4969283;28;19944;-51
2022/11/24 01:52:28;;;;;;;;;;;10.20;67.80;;;5.72;100.00;95163.94;4970373;28;19916;-50
2022/11/24 01:55:06;;;;;;;;;;;10.20;67.80;;;5.71;100.00;95164.19;4947888;28;20332;-49
2022/11/24 01:58:11;;;;;;;;;;;10.20;67.80;;;5.65;100.00;95168.59;4973321;28;19916;-53
2022/11/24 02:00:43;;;;;;;;;;;10.20;67.70;;;5.60;100.00;95170.38;4986566;28;19913;-49
2022/11/24 02:03:14;;;;;;;;;;;10.20;67.70;;;5.59;100.00;95182.78;4973177;28;20288;-49
2022/11/24 02:06:18;;;;;;;;;;;10.10;67.70;;;5.57;100.00;95188.28;4982969;28;19972;-51
2022/11/24 02:09:25;;;;;;;;;;;10.10;67.70;;;5.60;100.00;95188.88;4970800;28;20369;-50
2022/11/24 02:11:53;;;;;;;;;;;10.10;67.80;;;5.61;100.00;95193.09;4932155;28;19910;-49
2022/11/24 02:14:25;;;;;;;;;;;10.10;67.80;;;5.61;100.00;95183.34;4957540;28;19943;-49
2022/11/24 02:17:03;;;;;;;;;;;10.10;67.80;;;5.63;100.00;95191.81;4966686;28;20372;-50
2022/11/24 02:19:47;;;;;;;;;;;10.20;67.90;;;5.65;100.00;95191.59;4976426;28;20299;-51
2022/11/24 02:22:19;;;;;;;;;;;10.20;67.80;;;5.68;100.00;95193.75;4994175;28;20368;-50
2022/11/24 02:25:21;;;;;;;;;;;10.20;67.80;;;5.65;100.00;95200.31;4974443;28;19910;-49
2022/11/24 02:27:54;;;;;;;;;;;10.20;67.80;;;5.64;100.00;95198.72;4993706;28;19916;-49
2022/11/24 02:30:30;;;;;;;;;;;10.30;67.80;;;5.70;100.00;95200.41;4980859;28;19909;-49
2022/11/24 02:32:56;;;;;;;;;;;10.30;67.80;;;5.70;100.00;95200.41;4976002;28;19924;-51
2022/11/24 02:35:21;;;;;;;;;;;10.30;67.80;;;5.71;100.00;95201.19;4987159;28;19909;-49
2022/11/24 02:37:47;;;;;;;;;;;10.30;67.70;;;5.73;100.00;95201.72;4989410;28;19913;-49
2022/11/24 02:40:24;;;;;;;;;;;10.30;67.70;;;5.69;100.00;95201.41;4976072;28;19938;-50
2022/11/24 02:42:59;;;;;;;;;;;10.30;67.70;;;5.71;100.00;95204.63;4973269;28;20257;-51
2022/11/24 02:45:31;;;;;;;;;;;10.30;67.70;;;5.73;100.00;95204.38;4976421;28;19909;-49
2022/11/24 02:48:06;;;;;;;;;;;10.40;67.70;;;5.75;100.00;95204.94;4991734;28;19916;-49
2022/11/24 02:50:32;;;;;;;;;;;10.30;67.60;;;5.78;100.00;95205.25;4976124;28;20257;-49
2022/11/24 02:52:57;;;;;;;;;;;10.40;67.70;;;5.77;100.00;95203.66;4994801;28;19924;-54
2022/11/24 02:55:26;;;;;;;;;;;10.40;67.60;;;5.80;100.00;95200.53;4987478;28;19920;-49
2022/11/24 02:58:01;;;;;;;;;;;10.40;67.60;;;5.79;100.00;95204.19;4972539;28;19910;-49
2022/11/24 03:00:27;;;;;;;;;;;10.40;67.60;;;5.77;100.00;95208.94;4987345;28;19913;-51
2022/11/24 03:02:53;;;;;;;;;;;10.40;67.50;;;5.75;100.00;95211.00;4975622;28;20071;-51
2022/11/24 03:05:22;;;;;;;;;;;10.40;67.60;;;5.75;100.00;95210.22;4950749;28;19921;-50
2022/11/24 03:07:48;;;;;;;;;;;10.40;67.50;;;5.68;100.00;95213.03;4975739;28;20012;-50
2022/11/24 03:10:16;;;;;;;;;;;10.40;67.50;;;5.69;100.00;95204.06;4975566;28;20020;-49
2022/11/24 03:12:42;;;;;;;;;;;10.40;67.40;;;5.66;100.00;95215.13;4981481;28;19913;-49
2022/11/24 03:15:09;;;;;;;;;;;10.30;67.30;;;5.61;100.00;95217.69;4988814;28;19909;-49
2022/11/24 03:17:34;;;;;;;;;;;10.30;67.30;;;5.56;100.00;95220.25;4973356;28;19916;-51
2022/11/24 03:20:01;;;;;;;;;;;10.30;67.40;;;5.56;99.95;95213.13;4976720;28;19996;-49
2022/11/24 03:22:29;;;;;;;;;;;10.20;67.30;;;5.61;99.87;95217.69;4955394;28;19916;-49
2022/11/24 03:24:58;;;;;;;;;;;10.20;67.30;;;5.55;99.45;95213.38;4989356;28;19913;-50
2022/11/24 03:27:24;;;;;;;;;;;10.10;67.20;;;5.48;99.32;95213.50;4992819;28;19909;-49
2022/11/24 03:29:56;;;;;;;;;;;10.10;67.20;;;5.45;99.25;95208.75;4982949;28;19916;-50
2022/11/24 03:32:22;;;;;;;;;;;10.10;67.20;;;5.36;99.37;95202.25;4992496;28;19959;-50
2022/11/24 03:34:48;;;;;;;;;;;10.00;67.10;;;5.36;99.11;95204.91;4973459;28;19917;-52
2022/11/24 03:37:16;;;;;;;;;;;10.00;67.20;;;5.36;98.93;95212.00;4972017;28;19909;-49
2022/11/24 03:39:42;;;;;;;;;;;9.90;67.10;;;5.32;98.82;95211.69;4970369;28;19910;-49
2022/11/24 03:42:08;;;;;;;;;;;9.90;67.10;;;5.27;98.62;95209.78;4986324;28;19963;-50
2022/11/24 03:44:34;;;;;;;;;;;9.90;67.10;;;5.18;99.27;95210.41;4991799;28;19949;-56
2022/11/24 03:47:02;;;;;;;;;;;9.80;67.10;;;5.13;99.31;95213.75;4986649;28;20233;-50
2022/11/24 03:49:35;;;;;;;;;;;9.80;67.20;;;5.09;99.06;95217.94;4973398;28;19956;-53
2022/11/24 03:52:16;;;;;;;;;;;9.70;67.20;;;5.05;99.28;95211.53;4975166;28;20351;-49
2022/11/24 03:54:42;;;;;;;;;;;9.70;67.20;;;4.99;99.39;95212.47;4973708;28;20414;-50
2022/11/24 03:57:07;;;;;;;;;;;9.60;67.10;;;4.93;99.67;95214.22;4972837;28;19913;-49
2022/11/24 03:59:33;;;;;;;;;;;9.60;67.10;;;4.88;99.52;95217.56;4991031;28;19910;-51
2022/11/24 04:01:59;;;;;;;;;;;9.50;67.00;;;4.82;99.91;95207.94;4972818;28;20007;-49
2022/11/24 04:04:25;;;;;;;;;;;9.50;67.10;;;4.74;99.92;95210.19;4971177;28;19921;-51
2022/11/24 04:06:50;;;;;;;;;;;9.40;67.00;;;4.71;100.00;95216.75;4973998;28;19909;-51
2022/11/24 04:09:16;;;;;;;;;;;9.40;67.20;;;4.69;100.00;95216.16;4974537;28;19916;-51
2022/11/24 04:14:32;;;;;;;;;;;9.30;67.30;;;4.63;100.00;95217.09;4991449;28;19955;-51
2022/11/24 04:16:58;;;;;;;;;;;9.20;67.30;;;4.62;100.00;95221.59;4969126;28;19964;-52
2022/11/24 04:19:23;;;;;;;;;;;9.20;67.50;;;4.63;100.00;95230.31;4955046;28;19960;-51
2022/11/24 04:22:04;;;;;;;;;;;9.20;67.60;;;4.62;100.00;95231.34;4972220;28;19909;-52
2022/11/24 04:24:30;;;;;;;;;;;9.10;67.60;;;4.63;99.71;95236.38;4979516;28;19914;-51
2022/11/24 04:26:55;;;;;;;;;;;9.10;67.70;;;4.60;100.00;95239.47;4972277;28;20300;-52
2022/11/24 04:29:30;;;;;;;;;;;9.20;67.60;;;4.57;100.00;95239.94;4969637;28;19909;-51
2022/11/24 04:31:59;;;;;;;;;;;9.10;67.60;;;4.55;100.00;95246.53;4980068;28;19913;-52
2022/11/24 04:34:24;;;;;;;;;;;9.10;67.60;;;4.51;100.00;95258.56;4972847;28;20310;-52
2022/11/24 04:36:50;;;;;;;;;;;9.10;67.60;;;4.51;100.00;95255.91;4973324;28;19909;-54
2022/11/24 04:39:16;;;;;;;;;;;9.10;67.70;;;4.55;100.00;95257.88;4991251;28;19944;-51
2022/11/24 04:41:42;;;;;;;;;;;9.10;67.80;;;4.60;100.00;95262.44;4984746;28;19909;-51
2022/11/24 04:44:08;;;;;;;;;;;9.10;68.00;;;4.64;100.00;95261.75;4991134;28;20284;-52
2022/11/24 04:46:42;;;;;;;;;;;9.20;68.10;;;4.70;99.94;95267.91;4990801;28;19916;-56
2022/11/24 04:49:11;;;;;;;;;;;9.20;68.00;;;4.73;100.00;95266.63;4975210;28;20001;-53
2022/11/24 04:51:38;;;;;;;;;;;9.20;68.00;;;4.76;99.58;95272.22;4971796;28;19918;-53
2022/11/24 04:54:10;;;;;;;;;;;9.30;68.00;;;4.82;99.20;95270.50;4989494;28;19972;-53
2022/11/24 04:56:35;;;;;;;;;;;9.30;67.90;;;4.82;98.78;95268.66;4954039;28;20004;-51
2022/11/24 04:59:01;;;;;;;;;;;9.40;67.90;;;4.86;98.58;95271.66;4976594;28;20360;-51
2022/11/24 05:01:27;;;;;;;;;;;9.40;67.90;;;4.84;98.31;95274.50;4973903;28;19920;-51
2022/11/24 05:03:55;;;;;;;;;;;9.40;67.70;;;4.84;97.86;95282.41;4990846;28;19921;-51
2022/11/24 05:06:22;;;;;;;;;;;9.40;67.60;;;4.82;97.68;95286.31;4989472;28;19921;-52
2022/11/24 05:08:57;;;;;;;;;;;9.40;67.50;;;4.80;98.03;95288.41;4974022;28;19920;-51
2022/11/24 05:11:22;;;;;;;;;;;9.40;67.50;;;4.81;98.54;95297.94;4998066;28;19920;-51
2022/11/24 05:13:48;;;;;;;;;;;9.40;67.50;;;4.80;98.01;95294.50;4973988;28;19914;-51
2022/11/24 05:16:14;;;;;;;;;;;9.40;67.50;;;4.78;97.92;95288.63;4971234;28;19945;-52
2022/11/24 05:18:40;;;;;;;;;;;9.40;67.50;;;4.79;97.45;95290.22;4996524;28;19913;-51
2022/11/24 05:21:15;;;;;;;;;;;9.30;67.40;;;4.77;97.21;95292.31;4938035;28;19940;-51
2022/11/24 05:23:52;;;;;;;;;;;9.30;67.30;;;4.76;96.87;95282.78;4989556;28;19932;-52
2022/11/24 05:26:18;;;;;;;;;;;9.40;67.40;;;4.68;97.13;95285.81;4973138;28;19910;-51
2022/11/24 05:28:50;;;;;;;;;;;9.30;67.20;;;4.58;97.48;95286.41;4974891;28;19959;-53
2022/11/24 05:31:15;;;;;;;;;;;9.30;67.10;;;4.50;97.08;95288.63;4980752;28;19917;-51
2022/11/24 05:33:44;;;;;;;;;;;9.20;67.00;;;4.42;97.21;95287.16;4973438;28;20310;-52
2022/11/24 05:36:51;;;;;;;;;;;9.20;67.00;;;4.33;97.67;95278.78;4980993;28;19935;-51
2022/11/24 05:38:59;;;;;;;;;;;9.10;67.00;;;4.25;97.55;95292.31;4971519;28;20383;-51
2022/11/24 05:41:25;;;;;;;;;;;9.00;66.80;;;4.20;99.46;95288.78;4975984;28;19932;-54
2022/11/24 05:43:51;;;;;;;;;;;9.00;67.00;;;4.13;99.36;95287.06;4989318;28;20385;-51
2022/11/24 05:46:20;;;;;;;;;;;8.90;67.00;;;4.11;99.65;95288.34;4988044;28;20020;-53
2022/11/24 05:48:48;;;;;;;;;;;8.90;67.10;;;4.08;99.89;95286.16;4980770;28;19910;-51
2022/11/24 05:51:14;;;;;;;;;;;8.80;67.10;;;4.07;100.00;95282.69;4975025;28;19916;-52
2022/11/24 05:53:46;;;;;;;;;;;8.80;67.20;;;4.08;100.00;95294.06;4966743;28;19914;-51
2022/11/24 05:56:11;;;;;;;;;;;8.80;67.30;;;4.10;100.00;95295.44;4993767;28;19909;-52
2022/11/24 05:58:37;;;;;;;;;;;8.80;67.50;;;4.16;100.00;95291.88;4993167;28;19917;-51
2022/11/24 06:01:06;;;;;;;;;;;8.80;67.60;;;4.18;100.00;95289.00;4973658;28;19916;-52
2022/11/24 06:03:35;;;;;;;;;;;8.80;67.60;;;4.25;100.00;95294.16;4974912;28;19920;-51
2022/11/24 06:06:01;;;;;;;;;;;8.90;67.80;;;4.27;100.00;95290.25;4979303;28;20364;-52
2022/11/24 06:08:26;;;;;;;;;;;8.90;67.80;;;4.33;100.00;95284.06;4971415;28;19916;-52
2022/11/24 06:11:15;;;;;;;;;;;8.90;67.80;;;4.35;100.00;95278.53;4989487;28;20359;-51
2022/11/24 06:13:59;;;;;;;;;;;9.00;67.80;;;4.39;100.00;95285.78;4976406;28;20361;-51
2022/11/24 06:16:25;;;;;;;;;;;9.00;67.80;;;4.44;100.00;95286.91;4991509;28;19913;-51
2022/11/24 06:18:54;;;;;;;;;;;9.00;67.80;;;4.49;99.45;95284.38;4993781;28;20276;-52
2022/11/24 06:21:20;;;;;;;;;;;9.10;67.90;;;4.54;99.22;95290.53;4993916;28;20398;-51
2022/11/24 06:23:49;;;;;;;;;;;9.10;67.90;;;4.60;99.14;95288.81;4987668;28;19909;-52
2022/11/24 06:26:27;;;;;;;;;;;9.10;67.90;;;4.62;98.60;95287.53;4976166;28;20000;-52
2022/11/24 06:28:53;;;;;;;;;;;9.20;67.90;;;4.67;98.09;95280.75;4993317;28;20036;-51
2022/11/24 06:31:27;;;;;;;;;;;9.20;67.80;;;4.72;97.87;95289.56;4992430;28;20003;-51
2022/11/24 06:33:53;;;;;;;;;;;9.30;67.90;;;4.77;97.07;95294.97;4976177;28;19925;-52
2022/11/24 06:36:19;;;;;;;;;;;9.30;67.90;;;4.85;96.27;95301.69;4963912;28;19909;-51
2022/11/24 06:38:45;;;;;;;;;;;9.30;67.90;;;4.92;96.08;95297.09;4985535;28;20004;-52
2022/11/24 06:41:14;;;;;;;;;;;9.40;67.90;;;4.94;95.28;95294.22;4991917;28;20411;-52
2022/11/24 06:43:40;;;;;;;;;;;9.40;67.80;;;4.97;95.25;95297.19;4992853;28;19909;-51
2022/11/24 06:46:06;;;;;;;;;;;9.40;67.70;;;4.98;95.00;95295.34;4992134;28;20055;-52
2022/11/24 06:48:32;;;;;;;;;;;9.50;67.70;;;5.00;94.89;95298.53;4973712;28;19909;-53
2022/11/24 06:51:01;;;;;;;;;;;9.50;67.70;;;5.06;94.64;95298.41;4974547;28;19913;-52
2022/11/24 06:53:31;;;;;;;;;;;9.60;67.70;;;5.13;94.21;95305.38;4996650;28;19942;-51
2022/11/24 06:56:01;;;;;;;;;;;9.60;67.60;;;5.15;94.38;95298.03;4972807;28;19914;-51
2022/11/24 06:58:27;;;;;;;;;;;9.70;67.50;;;5.17;94.52;95288.84;4972570;28;20276;-54
2022/11/24 07:00:53;;;;;;;;;;;9.70;67.40;;;5.19;94.26;95289.38;4881360;28;19917;-54
2022/11/24 07:03:22;;;;;;;;;;;9.80;67.40;;;5.25;94.04;95293.72;4974551;28;19910;-51
2022/11/24 07:05:48;;;;;;;;;;;9.80;67.40;;;5.31;93.95;95289.31;4982302;28;19913;-52
2022/11/24 07:08:14;;;;;;;;;;;9.80;67.30;;;5.33;94.17;95284.63;4985764;28;20383;-52
2022/11/24 07:10:40;;;;;;;;;;;9.90;67.20;;;5.36;93.71;95293.88;4991241;28;20008;-54
2022/11/24 07:13:09;;;;;;;;;;;10.00;67.20;;;5.39;93.59;95299.50;4974161;28;20426;-51
2022/11/24 07:15:36;;;;;;;;;;;10.00;67.10;;;5.44;93.54;95310.16;4996544;28;19982;-51
2022/11/24 07:18:02;;;;;;;;;;;10.10;67.10;;;5.50;93.80;95303.91;4997673;28;19932;-52
2022/11/24 07:20:27;;;;;;;;;;;10.10;67.10;;;5.52;93.09;95301.84;4962584;28;19910;-52
2022/11/24 07:22:57;;;;;;;;;;;10.20;67.00;;;5.62;93.34;95295.91;4964701;28;19913;-52
2022/11/24 07:25:24;;;;;;;;;;;10.20;66.90;;;5.62;93.45;95300.41;4972308;28;20280;-54
2022/11/24 07:28:00;;;;;;;;;;;10.20;66.80;;;5.65;93.27;95297.28;4992177;28;19913;-53
2022/11/24 07:30:27;;;;;;;;;;;10.30;66.80;;;5.65;93.49;95299.94;4990233;28;19960;-51
2022/11/24 07:33:02;;;;;;;;;;;10.30;66.60;;;5.62;93.35;95295.91;4955852;28;19918;-51
2022/11/24 07:35:31;;;;;;;;;;;10.30;66.50;;;5.65;93.67;95307.84;4988184;28;19932;-51
2022/11/24 07:37:58;;;;;;;;;;;10.30;66.40;;;5.62;93.21;95306.50;4978895;28;19913;-51
2022/11/24 07:40:25;;;;;;;;;;;10.30;66.50;;;5.64;93.24;95307.06;4955160;28;19965;-52
2022/11/24 07:42:52;;;;;;;;;;;10.30;66.50;;;5.70;93.29;95308.75;4975042;28;19909;-54
2022/11/24 07:45:27;;;;;;;;;;;10.30;66.50;;;5.72;93.28;95311.13;4974448;28;20335;-52
2022/11/24 07:48:02;;;;;;;;;;;10.40;66.40;;;5.74;92.86;95315.16;4973376;28;20395;-51
2022/11/24 07:50:31;;;;;;;;;;;10.50;66.40;;;5.78;92.59;95310.97;4955821;28;19910;-51
2022/11/24 07:53:03;;;;;;;;;;;10.50;66.30;;;5.88;92.45;95318.25;4969300;28;19921;-50
2022/11/24 07:55:32;;;;;;;;;;;10.70;66.30;;;5.95;92.00;95326.84;4951621;28;19916;-51
2022/11/24 07:57:59;;;;;;;;;;;10.80;66.20;;;6.03;91.73;95337.03;4992745;28;19909;-54
2022/11/24 08:00:34;;;;;;;;;;;10.90;66.00;;;6.08;90.66;95348.72;4990851;28;19914;-51
2022/11/24 08:03:03;;;;;;;;;;;11.10;65.90;;;6.20;90.11;95346.78;4992275;28;20356;-51
2022/11/24 08:05:29;;;;;;;;;;;11.20;65.60;;;6.25;89.85;95345.03;4967316;28;19917;-51
2022/11/24 08:08:04;;;;;;;;;;;11.30;65.50;;;6.31;89.25;95351.19;4991353;28;19913;-51
2022/11/24 08:10:30;;;;;;;;;;;11.40;65.30;;;6.39;89.62;95355.25;4990195;28;19966;-51
2022/11/24 08:13:00;;;;;;;;;;;11.30;65.20;;;6.37;89.17;95360.81;4966723;28;19913;-51
2022/11/24 08:15:28;;;;;;;;;;;11.40;65.20;;;6.41;88.87;95369.84;4991498;28;20326;-51
2022/11/24 08:18:01;;;;;;;;;;;11.30;65.00;;;6.33;89.11;95365.00;4978826;28;19910;-53
2022/11/24 08:20:27;;;;;;;;;;;11.30;64.90;;;6.41;90.21;95382.28;4972059;28;19913;-51
2022/11/24 08:22:58;;;;;;;;;;;11.30;64.90;;;6.45;91.59;95383.38;4966209;28;19917;-54
2022/11/24 08:25:30;;;;;;;;;;;11.20;64.80;;;6.43;92.15;95377.56;4991462;28;19913;-51
2022/11/24 08:27:57;;;;;;;;;;;11.20;64.90;;;6.36;93.04;95379.56;4975210;28;20019;-55
2022/11/24 08:30:22;;;;;;;;;;;11.10;64.90;;;6.26;94.71;95388.94;4965238;28;20216;-51
2022/11/24 08:32:48;;;;;;;;;;;11.00;65.00;;;6.13;95.90;95389.28;4991365;28;20044;-52
2022/11/24 08:35:17;;;;;;;;;;;10.90;65.10;;;6.03;97.71;95392.56;4969313;28;19956;-51
2022/11/24 08:37:46;;;;;;;;;;;10.80;65.30;;;5.99;98.40;95398.59;4987210;28;19933;-51
2022/11/24 08:40:13;;;;;;;;;;;10.70;65.50;;;5.97;99.67;95398.81;4991718;28;19909;-51
2022/11/24 08:42:45;;;;;;;;;;;10.60;65.60;;;5.97;100.00;95408.59;4970181;28;19960;-51
2022/11/24 08:45:11;;;;;;;;;;;10.60;65.90;;;5.89;100.00;95401.84;4990930;28;19909;-51
2022/11/24 08:47:38;;;;;;;;;;;10.50;66.00;;;5.88;100.00;95421.34;4966550;28;20355;-51
2022/11/24 08:50:07;;;;;;;;;;;10.50;66.30;;;5.80;100.00;95419.13;4991319;28;19960;-52
2022/11/24 08:52:33;;;;;;;;;;;10.40;66.30;;;5.75;100.00;95409.25;4971474;28;19936;-52
2022/11/24 08:55:05;;;;;;;;;;;10.40;66.50;;;5.67;100.00;95420.22;4975482;28;20340;-51
2022/11/24 08:57:34;;;;;;;;;;;10.40;66.60;;;5.58;100.00;95419.00;4978249;28;19913;-53
2022/11/24 08:59:59;;;;;;;;;;;10.40;66.80;;;5.61;100.00;95420.34;4966913;28;19941;-52
2022/11/24 09:02:36;;;;;;;;;;;10.30;66.90;;;5.63;100.00;95413.00;4991173;28;19964;-51
2022/11/24 09:05:05;;;;;;;;;;;10.30;67.00;;;5.53;100.00;95421.53;4971867;28;19917;-51
2022/11/24 09:07:31;;;;;;;;;;;10.30;67.20;;;5.63;100.00;95426.19;4991213;28;19909;-51
2022/11/24 09:10:00;;;;;;;;;;;10.30;67.20;;;5.65;100.00;95429.41;4991175;28;19920;-52
2022/11/24 09:12:28;;;;;;;;;;;10.30;67.20;;;5.61;100.00;95437.03;4963636;28;19913;-51
2022/11/24 09:14:54;;;;;;;;;;;10.30;67.40;;;5.61;100.00;95436.19;4973043;28;20003;-53
2022/11/24 09:17:19;;;;;;;;;;;10.30;67.60;;;5.69;100.00;95443.75;4972231;28;20390;-51
2022/11/24 09:19:45;;;;;;;;;;;10.30;67.60;;;5.66;100.00;95446.88;4975999;28;19916;-52
2022/11/24 09:22:14;;;;;;;;;;;10.50;67.80;;;5.73;100.00;95447.53;4995151;28;19909;-52
2022/11/24 09:24:40;;;;;;;;;;;10.50;67.60;;;5.83;100.00;95452.19;4977801;28;20434;-52
2022/11/24 09:27:08;;;;;;;;;;;10.60;67.60;;;5.83;100.00;95460.13;4974381;28;19909;-51
2022/11/24 09:29:34;;;;;;;;;;;10.70;67.80;;;5.88;100.00;95450.44;4975644;28;19910;-52
2022/11/24 09:32:03;;;;;;;;;;;10.70;67.60;;;5.94;100.00;95451.38;4985554;28;19913;-52
2022/11/24 09:34:29;;;;;;;;;;;10.80;67.60;;;5.99;100.00;95457.56;4960094;28;20273;-53
2022/11/24 09:36:54;;;;;;;;;;;10.90;67.60;;;5.98;100.00;95457.78;4987798;28;19924;-52
2022/11/24 09:39:20;;;;;;;;;;;11.10;67.70;;;6.08;100.00;95462.44;4955795;28;19916;-52
2022/11/24 09:42:20;;;;;;;;;;;11.20;67.50;;;6.22;100.00;95458.44;4982411;28;19932;-52
2022/11/24 09:45:07;;;;;;;;;;;11.40;67.30;;;6.34;99.75;95459.19;4977961;28;19918;-52
2022/11/24 09:47:47;;;;;;;;;;;11.60;67.10;;;6.46;99.24;95459.91;4991870;28;19946;-54
2022/11/24 09:50:43;;;;;;;;;;;11.80;66.80;;;6.61;99.23;95464.63;4973820;28;20328;-52
2022/11/24 09:53:36;;;;;;;;;;;11.90;66.60;;;6.69;97.70;95476.63;4961091;28;19945;-54
2022/11/24 09:56:27;;;;;;;;;;;12.10;66.50;;;7.04;96.42;95478.97;4961112;28;19915;-52
2022/11/24 09:59:19;;;;;;;;;;;12.50;66.40;;;7.18;95.12;95469.66;4984139;28;19917;-50
2022/11/24 10:01:51;;;;;;;;;;;12.80;66.20;;;7.39;92.76;95460.09;4977751;28;19909;-51
2022/11/24 10:04:42;;;;;;;;;;;13.20;65.70;;;7.47;92.52;95472.13;4979382;28;19929;-49
2022/11/24 10:07:21;;;;;;;;;;;13.30;65.20;;;7.48;90.95;95470.25;4965832;28;19909;-49
2022/11/24 10:10:14;;;;;;;;;;;13.20;65.00;;;7.31;91.02;95483.59;4975799;28;19913;-50
2022/11/24 10:13:01;;;;;;;;;;;13.20;64.70;;;7.36;90.34;95484.47;4989561;28;20380;-51
2022/11/24 10:16:06;;;;;;;;;;;13.20;64.60;;;7.49;90.07;95482.47;4993187;28;19921;-50
2022/11/24 10:19:27;;;;;;;;;;;13.30;64.60;;;7.45;91.06;95487.44;4978273;28;20252;-52
2022/11/24 10:22:21;;;;;;;;;;;13.10;64.50;;;7.55;90.44;95487.59;4978654;28;20404;-51
2022/11/24 10:25:19;;;;;;;;;;;13.10;64.50;;;7.52;90.79;95477.50;4987546;28;19917;-49
2022/11/24 10:28:07;;;;;;;;;;;13.10;64.50;;;7.56;90.35;95488.41;4976272;28;19909;-53
2022/11/24 10:30:32;;;;;;;;;;;13.00;64.50;;;7.58;90.62;95488.94;4958793;28;19952;-54
2022/11/24 10:33:21;;;;;;;;;;;13.10;64.50;;;7.65;91.08;95487.72;4968956;28;20004;-52
2022/11/24 10:35:54;;;;;;;;;;;13.20;64.60;;;7.65;88.79;95487.72;4958038;28;19913;-51
2022/11/24 10:38:49;;;;;;;;;;;13.20;64.30;;;7.68;88.92;95490.91;4974859;28;19960;-54
2022/11/24 10:41:42;;;;;;;;;;;13.40;64.10;;;7.71;88.38;95479.78;4982997;28;19917;-49
2022/11/24 10:44:16;;;;;;;;;;;13.40;63.70;;;7.65;90.68;95487.72;4972825;28;19945;-51
2022/11/24 10:46:42;;;;;;;;;;;13.30;63.40;;;7.72;89.04;95479.56;4973801;28;19916;-50
2022/11/24 10:49:22;;;;;;;;;;;13.40;63.30;;;8.08;87.12;95490.53;4988941;28;19937;-53
2022/11/24 10:52:12;;;;;;;;;;;13.90;64.00;;;8.61;86.63;95493.41;4992534;28;19917;-50
2022/11/24 10:54:58;;;;;;;;;;;14.50;63.20;;;8.73;82.47;95496.69;4962651;28;19921;-53
2022/11/24 10:57:39;;;;;;;;;;;14.70;62.90;;;8.61;83.04;95498.72;4993473;28;19914;-53
2022/11/24 11:00:20;;;;;;;;;;;14.80;62.10;;;8.53;82.14;95498.13;4970299;28;20439;-47
2022/11/24 11:03:09;;;;;;;;;;;14.70;61.90;;;8.58;84.88;95495.50;4980779;28;19966;-49
2022/11/24 11:05:42;;;;;;;;;;;14.50;61.70;;;8.38;85.39;95492.69;4944614;28;19918;-50
2022/11/24 11:08:32;;;;;;;;;;;14.30;61.60;;;8.32;87.52;95486.50;4956579;28;19914;-51
2022/11/24 11:11:29;;;;;;;;;;;14.10;61.60;;;7.98;89.56;95501.84;4944409;28;19916;-52
2022/11/24 11:14:11;;;;;;;;;;;13.80;61.60;;;7.86;90.38;95501.97;4955136;28;19920;-50
2022/11/24 11:16:41;;;;;;;;;;;13.60;61.80;;;7.90;92.22;95499.66;4953112;28;19921;-51
2022/11/24 11:19:46;;;;;;;;;;;13.40;62.00;;;7.86;93.90;95501.97;4963194;28;19913;-51
2022/11/24 11:22:31;;;;;;;;;;;13.30;62.30;;;7.84;93.75;95498.78;4961972;28;19916;-49
2022/11/24 11:25:09;;;;;;;;;;;13.20;63.20;;;7.77;94.68;95507.97;4955622;28;20296;-51
2022/11/24 11:27:36;;;;;;;;;;;13.10;62.70;;;7.77;93.53;95505.31;4973526;28;20368;-50
2022/11/24 11:30:23;;;;;;;;;;;13.10;62.90;;;7.77;94.62;95508.78;4952262;28;19917;-49
2022/11/24 11:33:23;;;;;;;;;;;13.00;62.90;;;7.88;95.13;95507.84;4940558;28;19918;-51
2022/11/24 11:35:51;;;;;;;;;;;13.00;64.00;;;7.96;95.04;95511.09;4951341;28;19910;-50
2022/11/24 11:38:18;;;;;;;;;;;13.10;63.40;;;8.04;95.77;95515.97;4943765;28;19921;-49
2022/11/24 11:40:50;;;;;;;;;;;13.10;63.50;;;8.13;95.72;95513.66;4938688;28;19988;-49
2022/11/24 11:43:32;;;;;;;;;;;13.30;63.60;;;8.21;94.11;95514.03;4957132;28;19910;-50
2022/11/24 11:46:12;;;;;;;;;;;13.40;63.60;;;8.16;94.22;95511.31;4954508;28;20122;-54
2022/11/24 11:48:45;;;;;;;;;;;13.60;63.60;;;8.24;95.99;95510.88;4948915;28;19916;-51
2022/11/24 11:51:46;;;;;;;;;;;13.60;63.40;;;8.39;95.30;95512.88;4956273;28;19916;-48